createdAt,value
2017-01-31T00:01:30.541Z,3.76
2017-01-31T00:03:42.714Z,3.76
2017-01-31T00:05:53.388Z,3.72
2017-01-31T00:08:00.750Z,3.72
2017-01-31T00:10:13.118Z,3.72
2017-01-31T00:12:20.533Z,3.84
2017-01-31T00:14:33.415Z,3.9
2017-01-31T00:16:46.041Z,3.94
2017-01-31T00:18:58.353Z,3.91
2017-01-31T00:21:10.635Z,3.83
2017-01-31T00:23:22.936Z,3.8
2017-01-31T00:25:35.427Z,3.87
2017-01-31T00:27:47.767Z,3.88
2017-01-31T00:30:00.003Z,3.86
2017-01-31T00:32:07.178Z,3.84
2017-01-31T00:34:19.595Z,3.87
2017-01-31T00:36:31.845Z,3.84
2017-01-31T00:38:44.140Z,3.9
2017-01-31T00:40:51.460Z,3.93
2017-01-31T00:43:03.550Z,3.83
2017-01-31T00:45:10.690Z,3.7
2017-01-31T00:47:22.918Z,3.73
2017-01-31T00:49:35.400Z,3.83
2017-01-31T00:51:47.818Z,3.86
2017-01-31T00:53:55.096Z,3.86
2017-01-31T00:56:07.504Z,3.88
2017-01-31T00:58:14.674Z,3.93
2017-01-31T01:00:26.983Z,3.9
2017-01-31T01:02:39.283Z,3.94
2017-01-31T01:07:02.207Z,3.91
2017-01-31T01:09:14.549Z,3.88
2017-01-31T01:11:26.953Z,3.9
2017-01-31T01:13:39.159Z,3.98
2017-01-31T01:15:46.374Z,3.98
2017-01-31T01:17:53.723Z,4
2017-01-31T01:20:04.183Z,4.05
2017-01-31T01:22:16.702Z,4.09
2017-01-31T01:24:29.368Z,4.14
2017-01-31T01:26:41.724Z,4.15
2017-01-31T01:28:53.907Z,4.15
2017-01-31T01:31:06.008Z,4.18
2017-01-31T01:33:18.305Z,4.16
2017-01-31T01:35:30.493Z,4.2
2017-01-31T01:37:42.678Z,4.26
2017-01-31T01:39:54.992Z,4.26
2017-01-31T01:42:07.298Z,4.23
2017-01-31T01:44:19.616Z,4.3
2017-01-31T01:46:31.737Z,4.27
2017-01-31T01:48:44.098Z,4.22
2017-01-31T01:50:56.607Z,4.2
2017-01-31T01:53:03.892Z,4.29
2017-01-31T01:55:16.074Z,4.32
2017-01-31T01:57:28.332Z,4.33
2017-01-31T01:59:41.060Z,4.36
2017-01-31T02:01:48.399Z,4.37
2017-01-31T02:04:00.706Z,4.4
2017-01-31T02:06:12.972Z,4.42
2017-01-31T02:08:15.248Z,4.48
2017-01-31T02:10:27.576Z,4.5
2017-01-31T02:12:35.034Z,4.51
2017-01-31T02:14:47.254Z,4.52
2017-01-31T02:16:54.426Z,4.52
2017-01-31T02:19:05.002Z,4.55
2017-01-31T02:21:17.409Z,4.58
2017-01-31T02:23:24.782Z,4.54
2017-01-31T02:25:36.922Z,4.51
2017-01-31T02:27:44.124Z,4.51
2017-01-31T02:29:51.341Z,4.48
2017-01-31T02:32:03.739Z,4.55
2017-01-31T02:34:11.369Z,4.48
2017-01-31T02:36:24.264Z,4.45
2017-01-31T02:38:36.659Z,4.5
2017-01-31T02:40:47.215Z,4.5
2017-01-31T02:42:59.558Z,4.5
2017-01-31T02:45:11.916Z,4.47
2017-01-31T02:47:24.221Z,4.45
2017-01-31T02:49:36.526Z,4.47
2017-01-31T02:51:48.705Z,4.45
2017-01-31T02:53:55.892Z,4.54
2017-01-31T02:56:08.068Z,4.48
2017-01-31T02:58:20.316Z,4.44
2017-01-31T03:00:32.610Z,4.41
2017-01-31T03:02:44.902Z,4.48
2017-01-31T03:04:57.050Z,4.37
2017-01-31T03:07:09.257Z,4.32
2017-01-31T03:09:21.832Z,4.37
2017-01-31T03:11:34.521Z,4.33
2017-01-31T03:13:46.732Z,4.33
2017-01-31T03:15:59.021Z,4.5
2017-01-31T03:18:11.455Z,4.5
2017-01-31T03:20:23.594Z,4.72
2017-01-31T03:22:35.961Z,4.78
2017-01-31T03:24:48.241Z,4.88
2017-01-31T03:26:55.511Z,4.8
2017-01-31T03:29:07.858Z,4.52
2017-01-31T03:31:20.136Z,4.59
2017-01-31T03:33:32.505Z,4.55
2017-01-31T03:35:44.814Z,4.5
2017-01-31T03:37:57.220Z,4.4
2017-01-31T03:40:09.458Z,4.29
2017-01-31T03:42:11.691Z,4.18
2017-01-31T03:44:24.250Z,4.09
2017-01-31T03:46:36.633Z,3.97
2017-01-31T03:48:49.104Z,3.91
2017-01-31T03:51:01.320Z,4.02
2017-01-31T03:53:08.686Z,4.09
2017-01-31T03:55:20.887Z,4.04
2017-01-31T03:57:33.088Z,4.02
2017-01-31T03:59:45.293Z,3.97
2017-01-31T04:01:57.472Z,3.94
2017-01-31T04:04:09.655Z,3.91
2017-01-31T04:06:21.799Z,3.88
2017-01-31T04:08:33.908Z,3.86
2017-01-31T04:10:46.183Z,3.9
2017-01-31T04:12:58.469Z,3.8
2017-01-31T04:15:05.680Z,3.8
2017-01-31T04:17:12.940Z,3.7
2017-01-31T04:19:25.302Z,3.69
2017-01-31T04:21:37.667Z,3.72
2017-01-31T04:23:50.470Z,3.75
2017-01-31T04:26:02.782Z,3.79
2017-01-31T04:28:15.272Z,3.83
2017-01-31T04:30:27.684Z,3.8
2017-01-31T04:32:40.099Z,3.79
2017-01-31T04:34:52.598Z,3.94
2017-01-31T04:37:04.715Z,3.87
2017-01-31T04:39:17.031Z,3.88
2017-01-31T04:41:29.310Z,3.97
2017-01-31T04:43:41.497Z,4.22
2017-01-31T04:45:53.770Z,4.23
2017-01-31T04:48:05.901Z,4.33
2017-01-31T04:50:18.320Z,4.27
2017-01-31T04:52:30.420Z,4.47
2017-01-31T04:54:37.571Z,4.45
2017-01-31T04:56:44.991Z,4.7
2017-01-31T04:58:57.899Z,4.59
2017-01-31T05:01:10.680Z,4.72
2017-01-31T05:03:22.888Z,4.77
2017-01-31T05:05:35.085Z,4.85
2017-01-31T05:07:47.387Z,5
2017-01-31T05:09:59.536Z,4.86
2017-01-31T05:12:01.967Z,4.85
2017-01-31T05:14:14.165Z,4.91
2017-01-31T05:16:26.448Z,4.89
2017-01-31T05:18:38.749Z,4.94
2017-01-31T05:20:51.061Z,4.91
2017-01-31T05:23:03.245Z,4.91
2017-01-31T05:25:15.462Z,4.88
2017-01-31T05:27:27.764Z,4.89
2017-01-31T05:29:40.058Z,4.92
2017-01-31T05:31:52.383Z,5
2017-01-31T05:33:55.381Z,4.91
2017-01-31T05:36:07.929Z,4.97
2017-01-31T05:38:21.190Z,4.92
2017-01-31T05:40:31.638Z,4.96
2017-01-31T05:42:43.949Z,4.97
2017-01-31T05:44:56.230Z,4.99
2017-01-31T05:47:08.452Z,5.02
2017-01-31T05:49:15.718Z,4.97
2017-01-31T05:51:28.149Z,5.15
2017-01-31T05:53:40.424Z,5.02
2017-01-31T05:55:52.740Z,4.91
2017-01-31T05:58:05.067Z,4.96
2017-01-31T06:00:17.300Z,5
2017-01-31T06:02:29.545Z,4.89
2017-01-31T06:04:41.825Z,4.85
2017-01-31T06:06:54.112Z,4.78
2017-01-31T06:09:05.136Z,4.77
2017-01-31T06:11:12.579Z,4.73
2017-01-31T06:13:24.891Z,4.77
2017-01-31T06:15:37.087Z,4.73
2017-01-31T06:17:44.388Z,4.73
2017-01-31T06:19:56.563Z,4.73
2017-01-31T06:22:08.874Z,4.66
2017-01-31T06:26:26.838Z,4.62
2017-01-31T06:28:39.336Z,4.7
2017-01-31T06:30:51.632Z,4.65
2017-01-31T06:33:03.801Z,4.63
2017-01-31T06:35:16.004Z,4.59
2017-01-31T06:37:28.252Z,4.63
2017-01-31T06:39:40.764Z,4.69
2017-01-31T06:41:48.020Z,4.7
2017-01-31T06:44:00.942Z,4.8
2017-01-31T06:46:13.239Z,4.94
2017-01-31T06:48:32.080Z,4.92
2017-01-31T06:50:45.940Z,4.86
2017-01-31T06:52:58.249Z,4.85
2017-01-31T06:55:10.394Z,4.94
2017-01-31T06:57:22.635Z,4.94
2017-01-31T06:59:35.173Z,4.92
2017-01-31T07:01:40.636Z,4.94
2017-01-31T07:03:48.082Z,4.96
2017-01-31T07:06:00.319Z,5
2017-01-31T07:08:12.647Z,4.99
2017-01-31T07:10:25.000Z,4.97
2017-01-31T07:12:32.383Z,4.92
2017-01-31T07:14:44.692Z,4.88
2017-01-31T07:16:56.969Z,4.86
2017-01-31T07:19:04.834Z,4.85
2017-01-31T07:21:17.274Z,4.82
2017-01-31T07:23:29.436Z,4.84
2017-01-31T07:25:41.774Z,4.8
2017-01-31T07:27:53.917Z,4.99
2017-01-31T07:30:06.051Z,4.99
2017-01-31T07:32:18.280Z,4.97
2017-01-31T07:34:30.964Z,4.96
2017-01-31T07:36:43.511Z,4.94
2017-01-31T07:38:59.062Z,4.91
2017-01-31T07:41:11.298Z,4.96
2017-01-31T07:43:23.805Z,4.92
2017-01-31T07:45:36.289Z,4.92
2017-01-31T07:47:48.412Z,4.91
2017-01-31T07:50:00.769Z,4.91
2017-01-31T07:52:13.795Z,4.84
2017-01-31T07:54:26.486Z,4.86
2017-01-31T07:56:39.307Z,4.94
2017-01-31T07:58:53.036Z,4.99
2017-01-31T08:01:07.681Z,5.03
2017-01-31T08:03:20.846Z,5.04
2017-01-31T08:05:21.511Z,5.03
2017-01-31T08:07:33.893Z,5
2017-01-31T08:09:46.132Z,4.99
2017-01-31T08:11:58.361Z,5.03
2017-01-31T08:14:05.531Z,5.03
2017-01-31T08:16:17.839Z,5
2017-01-31T08:18:30.129Z,5.04
2017-01-31T08:20:42.438Z,5.04
2017-01-31T08:22:52.894Z,5.09
2017-01-31T08:25:05.125Z,5.09
2017-01-31T08:27:17.500Z,5.09
2017-01-31T08:29:30.139Z,5.06
2017-01-31T08:31:37.706Z,5.09
2017-01-31T08:33:49.963Z,5.17
2017-01-31T08:35:57.302Z,5.17
2017-01-31T08:38:09.602Z,5.18
2017-01-31T08:40:16.969Z,5.12
2017-01-31T08:42:24.269Z,5.13
2017-01-31T08:44:36.670Z,5.17
2017-01-31T08:46:49.256Z,5.21
2017-01-31T08:49:01.469Z,5.2
2017-01-31T08:51:08.697Z,5.17
2017-01-31T08:53:16.050Z,5.18
2017-01-31T08:55:23.235Z,5.17
2017-01-31T08:57:35.536Z,5.18
2017-01-31T08:59:47.672Z,5.15
2017-01-31T09:02:00.148Z,5.15
2017-01-31T09:04:12.542Z,5.12
2017-01-31T09:06:25.241Z,5.15
2017-01-31T09:08:37.739Z,5.12
2017-01-31T09:10:49.968Z,5.12
2017-01-31T09:12:57.373Z,5.13
2017-01-31T09:15:09.636Z,5.2
2017-01-31T09:17:22.024Z,5.2
2017-01-31T09:19:34.448Z,5.22
2017-01-31T09:21:46.881Z,5.2
2017-01-31T09:23:59.229Z,5.17
2017-01-31T09:26:11.449Z,5.13
2017-01-31T09:28:23.611Z,5.13
2017-01-31T09:30:35.958Z,5.17
2017-01-31T09:32:48.381Z,5.2
2017-01-31T09:35:00.600Z,5.27
2017-01-31T09:37:07.843Z,5.28
2017-01-31T09:39:20.131Z,5.28
2017-01-31T09:41:32.692Z,5.28
2017-01-31T09:43:45.100Z,5.33
2017-01-31T09:45:52.327Z,5.27
2017-01-31T09:48:05.348Z,5.25
2017-01-31T09:50:17.646Z,5.2
2017-01-31T09:52:30.051Z,5.21
2017-01-31T09:54:42.347Z,5.21
2017-01-31T09:56:49.545Z,5.2
2017-01-31T09:59:01.728Z,5.24
2017-01-31T10:01:14.019Z,5.28
2017-01-31T10:03:26.349Z,5.3
2017-01-31T10:05:33.536Z,5.31
2017-01-31T10:07:45.817Z,5.33
2017-01-31T10:09:58.131Z,5.38
2017-01-31T10:12:05.282Z,5.35
2017-01-31T10:14:17.873Z,5.33
2017-01-31T10:16:30.415Z,5.31
2017-01-31T10:18:43.035Z,5.3
2017-01-31T10:20:55.221Z,5.3
2017-01-31T10:23:02.379Z,5.3
2017-01-31T10:25:01.794Z,5.3
2017-01-31T10:27:09.191Z,5.28
2017-01-31T10:29:21.392Z,5.28
2017-01-31T10:31:33.684Z,5.28
2017-01-31T10:33:45.857Z,5.3
2017-01-31T10:35:53.195Z,5.33
2017-01-31T10:38:05.579Z,5.31
2017-01-31T10:40:18.196Z,5.35
2017-01-31T10:42:30.427Z,5.4
2017-01-31T10:44:42.690Z,5.4
2017-01-31T10:46:55.091Z,5.39
2017-01-31T10:49:02.500Z,5.39
2017-01-31T10:51:14.961Z,5.36
2017-01-31T10:53:27.552Z,5.33
2017-01-31T10:55:40.019Z,5.35
2017-01-31T10:57:52.245Z,5.36
2017-01-31T10:59:59.572Z,5.4
2017-01-31T11:02:11.989Z,5.38
2017-01-31T11:04:22.215Z,5.33
2017-01-31T11:06:30.065Z,5.31
2017-01-31T11:08:47.918Z,5.3
2017-01-31T11:11:01.433Z,5.3
2017-01-31T11:13:15.135Z,5.3
2017-01-31T11:15:29.203Z,5.38
2017-01-31T11:17:41.797Z,5.33
2017-01-31T11:19:54.097Z,5.36
2017-01-31T11:22:06.478Z,5.38
2017-01-31T11:24:19.298Z,5.4
2017-01-31T11:26:32.818Z,5.48
2017-01-31T11:28:49.378Z,5.58
2017-01-31T11:31:02.596Z,5.68
2017-01-31T11:33:12.581Z,5.71
2017-01-31T11:35:25.031Z,5.68
2017-01-31T11:37:37.310Z,5.63
2017-01-31T11:39:50.661Z,5.63
2017-01-31T11:42:04.873Z,5.6
2017-01-31T11:44:12.479Z,5.58
2017-01-31T11:46:26.589Z,5.58
2017-01-31T11:48:32.562Z,5.56
2017-01-31T11:50:40.838Z,5.54
2017-01-31T11:52:53.158Z,5.56
2017-01-31T11:55:00.985Z,5.53
2017-01-31T11:57:14.234Z,5.53
2017-01-31T11:59:21.688Z,5.49
2017-01-31T12:01:34.124Z,5.48
2017-01-31T12:03:47.072Z,5.45
2017-01-31T12:05:59.630Z,5.49
2017-01-31T12:08:08.640Z,5.53
2017-01-31T12:10:20.997Z,5.53
2017-01-31T12:12:33.136Z,5.54
2017-01-31T12:14:45.473Z,5.53
2017-01-31T12:16:57.764Z,5.54
2017-01-31T12:19:10.154Z,5.56
2017-01-31T12:23:27.894Z,5.54
2017-01-31T12:25:40.285Z,5.53
2017-01-31T12:27:52.542Z,5.54
2017-01-31T12:30:04.800Z,5.53
2017-01-31T12:32:12.103Z,5.51
2017-01-31T12:34:24.236Z,5.54
2017-01-31T12:36:36.815Z,5.58
2017-01-31T12:38:49.253Z,5.61
2017-01-31T12:41:01.571Z,5.6
2017-01-31T12:43:13.927Z,5.6
2017-01-31T12:45:26.082Z,5.57
2017-01-31T12:47:33.474Z,5.6
2017-01-31T12:49:45.776Z,5.57
2017-01-31T12:51:58.125Z,5.57
2017-01-31T12:54:10.437Z,5.54
2017-01-31T12:56:22.645Z,5.54
2017-01-31T12:58:34.992Z,5.51
2017-01-31T13:00:47.385Z,5.46
2017-01-31T13:02:59.700Z,5.48
2017-01-31T13:05:12.088Z,5.48
2017-01-31T13:07:19.388Z,5.46
2017-01-31T13:09:31.695Z,5.45
2017-01-31T13:11:43.881Z,5.43
2017-01-31T13:13:51.405Z,5.43
2017-01-31T13:15:58.671Z,5.42
2017-01-31T13:18:10.956Z,5.38
2017-01-31T13:20:23.690Z,5.36
2017-01-31T13:22:36.051Z,5.38
2017-01-31T13:24:48.466Z,5.38
2017-01-31T13:27:00.632Z,5.33
2017-01-31T13:29:13.021Z,5.31
2017-01-31T13:31:20.349Z,5.27
2017-01-31T13:33:27.597Z,5.24
2017-01-31T13:35:39.852Z,5.24
2017-01-31T13:37:52.070Z,5.24
2017-01-31T13:40:02.575Z,5.24
2017-01-31T13:42:18.690Z,5.24
2017-01-31T13:45:13.544Z,5.25
2017-01-31T13:47:48.555Z,5.28
2017-01-31T13:50:00.960Z,5.27
2017-01-31T13:52:13.735Z,5.31
2017-01-31T13:54:16.060Z,5.35
2017-01-31T13:56:28.404Z,5.35
2017-01-31T13:58:40.806Z,5.35
2017-01-31T14:00:53.025Z,5.38
2017-01-31T14:03:05.272Z,5.38
2017-01-31T14:05:12.690Z,5.35
2017-01-31T14:07:24.993Z,5.35
2017-01-31T14:09:37.680Z,5.33
2017-01-31T14:11:49.937Z,5.3
2017-01-31T14:14:02.201Z,5.28
2017-01-31T14:16:14.311Z,5.31
2017-01-31T14:18:21.668Z,5.31
2017-01-31T14:20:33.982Z,5.3
2017-01-31T14:22:46.446Z,5.3
2017-01-31T14:24:58.872Z,5.28
2017-01-31T14:27:01.365Z,5.3
2017-01-31T14:29:13.623Z,5.28
2017-01-31T14:31:25.829Z,5.3
2017-01-31T14:33:38.195Z,5.25
2017-01-31T14:35:50.424Z,5.12
2017-01-31T14:38:02.936Z,5.06
2017-01-31T14:40:16.620Z,4.97
2017-01-31T14:42:29.029Z,4.92
2017-01-31T14:44:41.456Z,4.86
2017-01-31T14:46:53.683Z,4.84
2017-01-31T14:49:05.889Z,4.8
2017-01-31T14:51:18.344Z,4.72
2017-01-31T14:53:30.644Z,4.67
2017-01-31T14:55:42.825Z,4.66
2017-01-31T14:57:55.236Z,4.65
2017-01-31T15:00:07.547Z,4.58
2017-01-31T15:02:20.240Z,4.54
2017-01-31T15:04:32.500Z,4.52
2017-01-31T15:06:44.875Z,4.47
2017-01-31T15:08:57.411Z,4.41
2017-01-31T15:11:09.747Z,4.37
2017-01-31T15:13:22.000Z,4.32
2017-01-31T15:15:34.285Z,4.27
2017-01-31T15:17:46.693Z,4.24
2017-01-31T15:19:57.244Z,4.23
2017-01-31T15:22:09.428Z,4.2
2017-01-31T15:24:21.642Z,4.2
2017-01-31T15:26:33.850Z,4.16
2017-01-31T15:28:46.250Z,4.11
2017-01-31T15:30:56.904Z,4.11
2017-01-31T15:33:07.674Z,4.09
2017-01-31T15:35:20.091Z,4.06
2017-01-31T15:37:32.450Z,4.05
2017-01-31T15:39:44.965Z,4.02
2017-01-31T15:41:57.313Z,3.97
2017-01-31T15:44:09.558Z,3.94
2017-01-31T15:46:22.073Z,3.9
2017-01-31T15:48:34.306Z,3.88
2017-01-31T15:50:46.535Z,3.84
2017-01-31T15:52:58.838Z,3.83
2017-01-31T15:55:11.077Z,3.79
2017-01-31T15:57:23.380Z,3.76
2017-01-31T15:59:35.589Z,3.75
2017-01-31T16:01:47.760Z,3.7
2017-01-31T16:04:00.051Z,3.66
2017-01-31T16:06:12.287Z,3.62
2017-01-31T16:08:24.629Z,3.6
2017-01-31T16:10:36.991Z,3.55
2017-01-31T16:12:49.635Z,3.52
2017-01-31T16:15:02.109Z,3.5
2017-01-31T16:17:14.441Z,3.45
2017-01-31T16:19:26.731Z,3.45
2017-01-31T16:21:39.233Z,3.4
2017-01-31T16:23:51.613Z,3.39
2017-01-31T16:25:59.042Z,3.36
2017-01-31T16:28:11.416Z,3.33
2017-01-31T16:30:29.883Z,3.29
2017-01-31T16:32:57.012Z,3.26
2017-01-31T16:35:04.329Z,3.26
2017-01-31T16:37:16.684Z,3.24
2017-01-31T16:39:29.110Z,3.26
2017-01-31T16:41:41.411Z,3.26
2017-01-31T16:43:53.743Z,3.23
2017-01-31T16:46:06.023Z,3.21
2017-01-31T16:48:18.841Z,3.21
2017-01-31T16:50:31.328Z,3.2
2017-01-31T16:52:43.895Z,3.18
2017-01-31T16:54:51.218Z,3.18
2017-01-31T16:57:04.138Z,3.18
2017-01-31T16:59:16.426Z,3.15
2017-01-31T17:01:28.796Z,3.13
2017-01-31T17:03:41.149Z,3.13
2017-01-31T17:05:53.549Z,3.11
2017-01-31T17:08:01.041Z,3.05
2017-01-31T17:10:13.416Z,3.03
2017-01-31T17:12:25.667Z,3
2017-01-31T17:14:37.957Z,2.99
2017-01-31T17:16:50.158Z,2.97
2017-01-31T17:18:57.413Z,2.96
2017-01-31T17:21:04.790Z,2.95
2017-01-31T17:23:17.055Z,2.93
2017-01-31T17:25:29.428Z,2.92
2017-01-31T17:27:41.818Z,2.9
2017-01-31T17:29:49.224Z,2.85
2017-01-31T17:32:01.823Z,2.84
2017-01-31T17:34:13.981Z,2.82
2017-01-31T17:36:26.195Z,2.81
2017-01-31T17:38:38.442Z,2.79
2017-01-31T17:40:50.612Z,2.79
2017-01-31T17:43:03.012Z,2.77
2017-01-31T17:45:10.428Z,2.75
2017-01-31T17:47:17.899Z,2.69
2017-01-31T17:49:30.292Z,2.69
2017-01-31T17:51:40.852Z,2.69
2017-01-31T17:53:48.130Z,2.69
2017-01-31T17:56:00.418Z,2.67
2017-01-31T17:58:08.077Z,2.66
2017-01-31T18:00:20.479Z,2.63
2017-01-31T18:02:32.639Z,2.6
2017-01-31T18:04:44.921Z,2.59
2017-01-31T18:07:01.266Z,2.57
2017-01-31T18:09:28.625Z,2.57
2017-01-31T18:11:56.928Z,2.56
2017-01-31T18:14:35.292Z,2.53
2017-01-31T18:17:05.792Z,2.49
2017-01-31T18:19:42.188Z,2.48
2017-01-31T18:22:37.588Z,2.46
2017-01-31T18:25:33.022Z,2.43
2017-01-31T18:28:28.585Z,2.42
2017-01-31T18:31:23.592Z,2.41
2017-01-31T18:34:20.517Z,2.41
2017-01-31T18:37:11.657Z,2.39
2017-01-31T18:40:07.159Z,2.39
2017-01-31T18:43:02.397Z,2.39
2017-01-31T18:45:58.742Z,2.36
2017-01-31T18:48:54.003Z,2.35
2017-01-31T18:51:48.627Z,2.3
2017-01-31T18:54:43.229Z,2.28
2017-01-31T18:57:38.102Z,2.27
2017-01-31T19:00:30.628Z,2.25
2017-01-31T19:03:25.512Z,2.25
2017-01-31T19:06:18.084Z,2.27
2017-01-31T19:09:13.384Z,2.25
2017-01-31T19:12:07.569Z,2.14
2017-01-31T19:15:02.727Z,2.09
2017-01-31T19:17:57.083Z,2.07
2017-01-31T19:20:56.650Z,2.07
2017-01-31T19:23:55.003Z,2.05
2017-01-31T19:26:58.460Z,2.02
2017-01-31T19:29:59.293Z,2
2017-01-31T19:32:59.618Z,1.99
2017-01-31T19:35:57.357Z,1.99
2017-01-31T19:38:59.458Z,1.95
2017-01-31T19:42:01.373Z,1.91
2017-01-31T19:45:02.674Z,1.88
2017-01-31T19:48:02.030Z,1.87
2017-01-31T19:50:57.352Z,1.81
2017-01-31T19:53:55.720Z,1.81
2017-01-31T19:56:50.237Z,1.77
2017-01-31T19:59:56.466Z,1.77
2017-01-31T20:02:57.612Z,1.77
2017-01-31T20:06:00.328Z,1.73
2017-01-31T20:09:00.543Z,1.73
2017-01-31T20:11:58.962Z,1.72
2017-01-31T20:14:37.044Z,1.73
2017-01-31T20:17:03.331Z,1.72
2017-01-31T20:19:11.966Z,1.72
2017-01-31T20:21:24.872Z,1.69
2017-01-31T20:23:37.970Z,1.69
2017-01-31T20:25:50.298Z,1.66
2017-01-31T20:28:03.266Z,1.65
2017-01-31T20:30:15.724Z,1.62
2017-01-31T20:32:28.011Z,1.54
2017-01-31T20:34:40.951Z,1.48
2017-01-31T20:37:05.932Z,1.45
2017-01-31T20:39:32.255Z,1.37
2017-01-31T20:41:44.761Z,1.26
2017-01-31T20:43:57.021Z,1.05
2017-01-31T20:46:09.358Z,0.93
2017-01-31T20:48:11.852Z,0.8
2017-01-31T20:50:19.306Z,0.7
2017-01-31T20:52:31.638Z,0.61
2017-01-31T20:54:45.275Z,0.55
2017-01-31T20:56:52.793Z,0.47
2017-01-31T20:59:00.226Z,0.44
2017-01-31T21:01:12.630Z,0.38
2017-01-31T21:03:23.236Z,0.33
2017-01-31T21:05:30.684Z,0.31
2017-01-31T21:07:43.105Z,0.29
2017-01-31T21:09:55.892Z,0.26
2017-01-31T21:12:08.174Z,0.26
2017-01-31T21:14:20.488Z,0.23
2017-01-31T21:16:32.905Z,0.23
2017-01-31T21:18:45.207Z,0.2
2017-01-31T21:20:57.636Z,0.2
2017-01-31T21:23:09.963Z,0.2
2017-01-31T21:25:22.213Z,0.2
2017-01-31T21:27:34.605Z,0.18
2017-01-31T21:29:46.960Z,0.2
2017-01-31T21:31:59.748Z,0.18
2017-01-31T21:34:12.111Z,0.18
2017-01-31T21:36:24.466Z,0.18
2017-01-31T21:38:38.436Z,0.17
2017-01-31T21:40:51.088Z,0.15
2017-01-31T21:43:03.376Z,0.17
2017-01-31T21:45:15.596Z,0.15
2017-01-31T21:47:27.779Z,0.14
2017-01-31T21:49:40.215Z,0.14
2017-01-31T21:51:52.629Z,0.15
2017-01-31T21:54:04.944Z,0.15
2017-01-31T21:56:17.411Z,0.15
2017-01-31T21:58:47.432Z,0.15
2017-01-31T22:01:37.904Z,0.15
2017-01-31T22:04:10.130Z,0.15
2017-01-31T22:06:32.434Z,0.15
2017-01-31T22:08:52.537Z,0.13
2017-01-31T22:11:15.075Z,0.14
2017-01-31T22:13:35.580Z,0.15
2017-01-31T22:16:00.049Z,0.15
2017-01-31T22:18:26.762Z,0.14
2017-01-31T22:20:53.440Z,0.17
2017-01-31T22:23:19.143Z,0.17
2017-01-31T22:25:46.946Z,0.15
2017-01-31T22:28:13.907Z,0.14
2017-01-31T22:30:40.822Z,0.15
2017-01-31T22:33:06.890Z,0.17
2017-01-31T22:35:35.547Z,0.15
2017-01-31T22:38:07.994Z,0.15
2017-01-31T22:40:29.663Z,0.15
2017-01-31T22:43:03.990Z,0.15
2017-01-31T22:45:39.776Z,0.17
2017-01-31T22:48:14.594Z,0.17
2017-01-31T22:50:59.439Z,0.2
2017-01-31T22:53:24.038Z,0.18
2017-01-31T22:55:47.684Z,0.2
2017-01-31T22:58:22.390Z,0.18
2017-01-31T23:00:50.200Z,0.18
2017-01-31T23:03:16.245Z,0.18
2017-01-31T23:05:40.838Z,0.18
2017-01-31T23:08:11.113Z,0.17
2017-01-31T23:10:38.508Z,0.17
2017-01-31T23:13:17.340Z,0.15
2017-01-31T23:15:44.713Z,0.17
2017-01-31T23:18:11.715Z,0.17
2017-01-31T23:20:39.836Z,0.2
2017-01-31T23:23:04.051Z,0.2
2017-01-31T23:25:37.213Z,0.2
2017-01-31T23:28:03.764Z,0.18
2017-01-31T23:30:31.652Z,0.2
2017-01-31T23:32:56.923Z,0.2
2017-01-31T23:35:23.850Z,0.18
2017-01-31T23:37:51.457Z,0.18
2017-01-31T23:40:22.580Z,0.2
2017-01-31T23:42:52.157Z,0.18
2017-01-31T23:45:24.938Z,0.2
2017-01-31T23:47:51.044Z,0.23
2017-01-31T23:49:58.571Z,0.21
2017-01-31T23:52:10.856Z,0.21
2017-01-31T23:54:23.605Z,0.21
2017-01-31T23:56:36.113Z,0.21
2017-01-31T23:58:48.414Z,0.21
